Time;durP1;ratioP1;P1;durP2;ratioP2;P2;SDS_P1;SDS_P2;PMS_P1;PMS_P2;Temp;Humidity;BMP_temperature;BMP_pressure;BME280_temperature;BME280_humidity;BME280_pressure;Samples;Min_cycle;Max_cycle;Signal;HPM_P1;HPM_P2
2022/08/01 00:02:02;;;;;;;1.75;0.90;;;15.00;99.90;;;;;;5093368;28;20516;-89
2022/08/01 00:04:29;;;;;;;2.30;0.90;;;15.10;99.90;;;;;;5092605;28;20377;-86
2022/08/01 00:06:56;;;;;;;1.92;1.00;;;15.20;99.90;;;;;;5092752;28;20860;-86
2022/08/01 00:09:23;;;;;;;2.20;0.90;;;15.30;99.90;;;;;;5092575;28;20381;-86
2022/08/01 00:11:50;;;;;;;1.35;0.80;;;15.40;99.90;;;;;;5092931;28;20721;-86
2022/08/01 00:14:18;;;;;;;3.50;0.80;;;15.60;99.90;;;;;;5092657;28;20476;-83
2022/08/01 00:16:45;;;;;;;1.10;0.60;;;15.80;99.90;;;;;;5092629;28;20433;-85
2022/08/01 00:19:12;;;;;;;2.47;0.70;;;15.90;99.90;;;;;;5092658;28;20369;-85
2022/08/01 00:21:39;;;;;;;1.48;0.80;;;16.10;99.90;;;;;;5092467;28;20724;-84
2022/08/01 00:24:06;;;;;;;2.63;0.70;;;16.20;99.90;;;;;;5092517;28;20371;-88
2022/08/01 00:26:33;;;;;;;1.63;0.67;;;16.30;99.90;;;;;;5095368;28;20372;-85
2022/08/01 00:29:00;;;;;;;0.70;0.60;;;16.40;99.90;;;;;;5096820;28;20506;-87
2022/08/01 00:31:27;;;;;;;0.70;0.50;;;16.60;99.90;;;;;;5096524;28;20744;-90
2022/08/01 00:33:54;;;;;;;1.20;0.60;;;16.70;99.90;;;;;;5096440;28;20437;-88
2022/08/01 00:36:21;;;;;;;1.23;0.60;;;16.80;99.90;;;;;;5096713;28;20392;-87
2022/08/01 00:38:49;;;;;;;1.60;0.52;;;17.00;99.90;;;;;;5095287;28;20437;-86
2022/08/01 00:41:16;;;;;;;1.35;0.40;;;17.30;99.90;;;;;;5097345;28;20387;-89
2022/08/01 00:43:43;;;;;;;2.73;0.60;;;17.60;99.90;;;;;;5097696;28;20384;-86
2022/08/01 00:46:10;;;;;;;1.70;0.50;;;17.80;99.80;;;;;;5098459;28;20384;-87
2022/08/01 00:48:37;;;;;;;1.33;0.60;;;18.00;99.00;;;;;;5099843;28;20840;-87
2022/08/01 00:51:05;;;;;;;0.85;0.60;;;18.10;97.90;;;;;;5098032;28;20841;-84
2022/08/01 00:53:33;;;;;;;1.52;0.50;;;17.80;98.80;;;;;;5097707;28;20368;-88
2022/08/01 00:56:01;;;;;;;1.20;0.50;;;17.50;97.90;;;;;;5097826;28;20379;-87
2022/08/01 00:58:30;;;;;;;1.15;0.50;;;17.40;97.80;;;;;;5097422;28;20479;-90
2022/08/01 01:00:58;;;;;;;0.73;0.70;;;17.30;97.70;;;;;;5096953;28;20376;-88
2022/08/01 01:03:26;;;;;;;1.83;0.60;;;17.30;98.60;;;;;;5096280;28;20463;-88
2022/08/01 01:06:05;;;;;;;1.60;0.70;;;17.30;99.20;;;;;;5095970;28;20736;-86
2022/08/01 01:08:47;;;;;;;1.17;0.60;;;17.30;99.40;;;;;;5095762;28;20372;-89
2022/08/01 01:11:32;;;;;;;1.20;0.80;;;17.30;99.00;;;;;;5094492;28;20376;-84
2022/08/01 01:14:05;;;;;;;0.60;0.52;;;17.30;97.80;;;;;;5095759;28;20728;-84
2022/08/01 01:16:35;;;;;;;1.10;0.70;;;17.50;98.20;;;;;;5095519;28;20840;-85
2022/08/01 01:19:04;;;;;;;1.02;0.50;;;17.80;96.70;;;;;;5095739;28;20369;-88
2022/08/01 01:21:51;;;;;;;1.35;0.50;;;17.90;93.00;;;;;;5096130;28;20377;-85
2022/08/01 01:24:38;;;;;;;0.63;0.50;;;17.90;92.70;;;;;;5095652;28;20379;-89
2022/08/01 01:27:24;;;;;;;1.08;0.47;;;17.70;93.80;;;;;;5095643;28;20364;-85
2022/08/01 01:29:56;;;;;;;0.95;0.60;;;17.80;95.00;;;;;;5095248;28;20357;-85
2022/08/01 01:32:25;;;;;;;0.98;0.60;;;17.80;93.00;;;;;;5095083;28;20448;-84
2022/08/01 01:34:56;;;;;;;0.82;0.50;;;17.70;92.30;;;;;;5095054;28;20922;-84
2022/08/01 01:37:27;;;;;;;0.57;0.50;;;17.70;93.70;;;;;;5094529;28;20721;-87
2022/08/01 01:39:56;;;;;;;2.28;0.70;;;17.60;93.40;;;;;;5095515;28;20372;-83
2022/08/01 01:42:25;;;;;;;2.65;0.68;;;17.60;94.40;;;;;;5094925;28;20404;-89
2022/08/01 01:44:53;;;;;;;1.20;0.70;;;17.60;93.00;;;;;;5094079;28;20392;-86
2022/08/01 01:47:22;;;;;;;1.15;0.65;;;17.60;93.20;;;;;;5095071;28;20383;-88
2022/08/01 01:49:50;;;;;;;2.90;0.60;;;17.70;93.80;;;;;;5094901;28;20425;-90
2022/08/01 01:52:19;;;;;;;0.95;0.70;;;17.80;93.70;;;;;;5095109;28;20376;-89
2022/08/01 01:54:49;;;;;;;1.60;0.70;;;17.70;94.70;;;;;;5094550;28;20400;-85
2022/08/01 01:57:18;;;;;;;2.17;0.80;;;17.70;91.90;;;;;;5094678;28;20368;-83
2022/08/01 01:59:48;;;;;;;2.30;0.70;;;17.60;88.60;;;;;;5096286;28;20433;-87
2022/08/01 02:02:16;;;;;;;2.65;0.70;;;17.40;84.90;;;;;;5100962;28;20383;-84
2022/08/01 02:04:48;;;;;;;1.13;0.60;;;17.60;83.70;;;;;;5095247;28;20369;-84
2022/08/01 02:07:21;;;;;;;2.50;0.60;;;17.80;78.10;;;;;;5094924;28;20732;-87
2022/08/01 02:09:49;;;;;;;1.77;0.70;;;17.70;75.80;;;;;;5095030;28;20373;-85
2022/08/01 02:12:19;;;;;;;1.70;0.50;;;17.80;75.70;;;;;;5094832;28;20689;-87
2022/08/01 02:14:48;;;;;;;1.60;0.60;;;18.00;73.90;;;;;;5094438;28;20479;-84
2022/08/01 02:17:19;;;;;;;2.60;0.70;;;18.30;74.20;;;;;;5094494;28;20379;-86
2022/08/01 02:19:47;;;;;;;2.03;0.90;;;18.50;71.60;;;;;;5095111;28;20396;-86
2022/08/01 02:22:31;;;;;;;2.53;0.65;;;18.70;69.50;;;;;;5094349;28;20379;-87
2022/08/01 02:25:10;;;;;;;1.50;0.50;;;18.80;71.20;;;;;;5094178;28;20367;-86
2022/08/01 02:28:07;;;;;;;1.15;0.50;;;19.00;69.40;;;;;;5094278;28;20372;-89
2022/08/01 02:30:38;;;;;;;3.63;0.82;;;19.00;68.40;;;;;;5093823;28;20459;-90
2022/08/01 02:33:22;;;;;;;1.70;0.70;;;19.20;66.90;;;;;;5094262;28;20360;-85
2022/08/01 02:35:56;;;;;;;3.83;1.05;;;19.30;66.70;;;;;;5094210;28;20384;-87
2022/08/01 02:38:27;;;;;;;2.58;0.60;;;19.40;65.80;;;;;;5094346;28;20392;-88
2022/08/01 02:40:58;;;;;;;2.73;0.70;;;19.50;63.40;;;;;;5093831;28;20376;-90
2022/08/01 02:43:29;;;;;;;0.70;0.57;;;19.40;65.20;;;;;;5093638;28;20376;-85
2022/08/01 02:46:01;;;;;;;2.65;0.60;;;19.40;66.50;;;;;;5093690;28;20368;-84
2022/08/01 02:48:31;;;;;;;2.15;0.50;;;19.40;62.40;;;;;;5093533;28;20368;-86
2022/08/01 02:51:02;;;;;;;2.72;0.60;;;19.10;59.50;;;;;;5093860;28;20403;-88
2022/08/01 02:53:36;;;;;;;1.02;0.40;;;19.10;58.90;;;;;;5094046;28;20372;-84
2022/08/01 02:56:06;;;;;;;2.20;0.50;;;19.10;58.10;;;;;;5093673;28;20380;-86
2022/08/01 02:58:36;;;;;;;1.65;0.40;;;19.10;57.70;;;;;;5093778;28;20407;-90
2022/08/01 03:01:06;;;;;;;2.25;0.50;;;19.20;56.50;;;;;;5093892;28;20384;-83
2022/08/01 03:03:37;;;;;;;2.75;0.50;;;19.30;56.80;;;;;;5093990;28;20364;-84
2022/08/01 03:06:05;;;;;;;4.70;0.63;;;19.30;56.50;;;;;;5094289;28;20467;-83
2022/08/01 03:08:33;;;;;;;3.40;0.50;;;19.30;55.90;;;;;;5094217;28;20372;-88
2022/08/01 03:11:01;;;;;;;2.00;0.50;;;19.40;55.50;;;;;;5093729;28;20369;-85
2022/08/01 03:13:31;;;;;;;1.35;0.47;;;19.50;53.80;;;;;;5093880;28;20368;-83
2022/08/01 03:15:59;;;;;;;1.00;0.40;;;19.40;54.40;;;;;;5093613;28;20417;-87
2022/08/01 03:18:28;;;;;;;1.20;0.50;;;19.40;55.00;;;;;;5093297;28;20452;-84
2022/08/01 03:20:56;;;;;;;0.65;0.40;;;19.40;54.50;;;;;;5093693;28;20365;-83
2022/08/01 03:23:26;;;;;;;0.60;0.60;;;19.30;54.40;;;;;;5093306;28;20379;-84
2022/08/01 03:25:54;;;;;;;1.00;0.40;;;19.50;54.50;;;;;;5092964;28;20396;-86
2022/08/01 03:28:23;;;;;;;0.65;0.47;;;19.60;55.40;;;;;;5093117;28;20377;-88
2022/08/01 03:30:51;;;;;;;1.98;0.50;;;19.70;53.20;;;;;;5091622;28;20717;-86
2022/08/01 03:33:18;;;;;;;1.08;0.47;;;19.90;53.40;;;;;;5093073;28;20389;-86
2022/08/01 03:35:53;;;;;;;0.77;0.50;;;20.00;53.20;;;;;;5092953;28;20384;-84
2022/08/01 03:38:23;;;;;;;1.13;0.30;;;20.10;51.00;;;;;;5092900;28;20360;-88
2022/08/01 03:40:56;;;;;;;0.60;0.40;;;20.10;50.00;;;;;;5092975;28;20400;-88
2022/08/01 03:43:29;;;;;;;0.45;0.32;;;20.40;50.60;;;;;;5092671;28;20436;-86
2022/08/01 03:46:04;;;;;;;1.70;0.50;;;20.70;50.90;;;;;;5093950;28;20422;-84
2022/08/01 03:48:36;;;;;;;1.10;0.40;;;21.10;48.70;;;;;;5094617;28;20365;-88
2022/08/01 03:51:04;;;;;;;0.40;0.40;;;20.80;49.40;;;;;;5096337;28;20906;-85
2022/08/01 03:53:32;;;;;;;0.70;0.40;;;20.90;49.60;;;;;;5096679;28;20377;-87
2022/08/01 03:56:02;;;;;;;0.47;0.30;;;21.30;48.90;;;;;;5095036;28;20714;-84
2022/08/01 03:58:31;;;;;;;0.35;0.30;;;21.60;46.10;;;;;;5094597;28;20369;-90
2022/08/01 04:00:59;;;;;;;1.48;0.60;;;21.80;45.50;;;;;;5097032;28;20376;-86
2022/08/01 04:03:27;;;;;;;0.30;0.30;;;21.50;46.60;;;;;;5100456;28;20715;-85
2022/08/01 04:05:54;;;;;;;0.60;0.20;;;21.30;46.20;;;;;;5099975;28;20543;-89
2022/08/01 04:08:22;;;;;;;0.82;0.35;;;21.60;45.90;;;;;;5099766;28;20464;-87
2022/08/01 04:10:49;;;;;;;0.60;0.35;;;21.70;45.30;;;;;;5099426;28;20467;-84
2022/08/01 04:13:16;;;;;;;0.50;0.40;;;21.90;45.40;;;;;;5099473;28;20728;-85
2022/08/01 04:15:43;;;;;;;0.60;0.40;;;21.80;47.10;;;;;;5099526;28;20483;-86
2022/08/01 04:18:11;;;;;;;1.23;0.40;;;21.60;46.30;;;;;;5099649;28;20372;-89
2022/08/01 04:20:38;;;;;;;0.63;0.30;;;21.60;45.40;;;;;;5099498;28;20437;-90
2022/08/01 04:23:06;;;;;;;0.60;0.40;;;21.80;46.50;;;;;;5099678;28;20443;-86
2022/08/01 04:25:36;;;;;;;1.30;0.40;;;22.00;43.70;;;;;;5099453;28;20394;-84
2022/08/01 04:28:07;;;;;;;0.40;0.35;;;22.00;44.30;;;;;;5099528;28;20873;-88
2022/08/01 04:30:36;;;;;;;1.45;0.50;;;22.10;44.10;;;;;;5099322;28;20801;-87
2022/08/01 04:33:06;;;;;;;0.90;0.30;;;22.40;43.30;;;;;;5099364;28;20379;-84
2022/08/01 04:35:34;;;;;;;0.95;0.30;;;22.50;44.50;;;;;;5099402;28;20429;-87
2022/08/01 04:38:03;;;;;;;0.85;0.35;;;22.20;43.20;;;;;;5099357;28;21045;-90
2022/08/01 04:40:31;;;;;;;0.60;0.30;;;21.90;43.70;;;;;;5099050;28;20372;-89
2022/08/01 04:42:58;;;;;;;0.70;0.35;;;22.00;43.30;;;;;;5099136;28;20424;-89
2022/08/01 04:45:26;;;;;;;0.77;0.20;;;21.80;43.50;;;;;;5096632;28;20372;-85
2022/08/01 04:47:59;;;;;;;1.23;0.47;;;21.50;42.80;;;;;;5098337;28;20465;-84
2022/08/01 04:50:27;;;;;;;0.38;0.30;;;22.20;42.90;;;;;;5097857;28;20445;-86
2022/08/01 04:52:54;;;;;;;0.55;0.30;;;21.90;43.20;;;;;;5099025;28;20421;-84
2022/08/01 04:55:21;;;;;;;1.30;0.40;;;21.70;43.00;;;;;;5098817;28;20410;-85
2022/08/01 04:57:49;;;;;;;0.70;0.32;;;21.80;42.30;;;;;;5098893;28;20372;-86
2022/08/01 05:00:17;;;;;;;0.70;0.22;;;21.70;42.60;;;;;;5099010;28;20418;-85
2022/08/01 05:02:44;;;;;;;2.00;0.30;;;21.70;42.00;;;;;;5099361;28;20390;-87
2022/08/01 05:05:12;;;;;;;0.30;0.30;;;21.20;43.70;;;;;;5099015;28;20437;-86
2022/08/01 05:07:39;;;;;;;0.60;0.30;;;21.30;43.60;;;;;;5098946;28;20368;-87
2022/08/01 05:10:07;;;;;;;0.70;0.20;;;21.10;43.30;;;;;;5098905;28;20401;-88
2022/08/01 05:12:37;;;;;;;1.00;0.30;;;20.60;44.00;;;;;;5097641;28;20384;-89
2022/08/01 05:15:04;;;;;;;2.23;0.40;;;20.40;44.40;;;;;;5101755;28;20400;-90
2022/08/01 05:17:31;;;;;;;0.75;0.30;;;20.10;44.70;;;;;;5100564;28;20374;-90
2022/08/01 05:19:59;;;;;;;0.90;0.40;;;19.70;45.40;;;;;;5100139;28;20864;-88
2022/08/01 05:22:27;;;;;;;2.00;0.40;;;19.60;45.70;;;;;;5093013;28;20387;-90
2022/08/01 05:24:55;;;;;;;2.15;0.30;;;19.40;47.10;;;;;;5098280;28;20373;-91
2022/08/01 05:27:22;;;;;;;1.45;0.40;;;19.10;46.20;;;;;;5099159;28;20414;-91
2022/08/01 05:29:49;;;;;;;4.28;0.50;;;19.00;46.80;;;;;;5099520;28;20479;-90
2022/08/01 05:32:17;;;;;;;0.47;0.40;;;19.20;48.50;;;;;;5099521;28;20759;-91
2022/08/01 05:34:45;;;;;;;9.52;2.15;;;19.30;47.20;;;;;;5099277;28;20411;-85
2022/08/01 05:37:13;;;;;;;9.05;1.73;;;19.30;47.70;;;;;;5099057;28;20364;-90
2022/08/01 05:39:40;;;;;;;6.68;1.67;;;19.50;48.10;;;;;;5100070;28;20384;-89
2022/08/01 05:42:07;;;;;;;6.53;2.28;;;19.40;46.80;;;;;;5099268;28;20740;-85
2022/08/01 05:44:34;;;;;;;4.33;2.20;;;19.20;47.60;;;;;;5099552;28;20422;-84
2022/08/01 05:47:02;;;;;;;2.72;1.60;;;18.90;46.80;;;;;;5099833;28;20955;-87
2022/08/01 05:52:38;;;;;;;2.20;0.80;;;18.70;47.60;;;;;;5099459;28;20467;-84
2022/08/01 05:55:06;;;;;;;1.33;0.65;;;18.70;48.50;;;;;;5094923;28;20399;-87
2022/08/01 05:57:33;;;;;;;0.65;0.60;;;18.60;47.80;;;;;;5094572;28;20364;-84
2022/08/01 06:00:00;;;;;;;3.07;1.20;;;18.50;48.60;;;;;;5094481;28;20368;-84
2022/08/01 06:02:27;;;;;;;2.20;1.10;;;18.50;48.80;;;;;;5097675;28;20443;-84
2022/08/01 06:04:55;;;;;;;0.60;0.60;;;18.40;48.20;;;;;;5099571;28;20860;-84
2022/08/01 06:07:22;;;;;;;3.42;0.60;;;18.40;49.00;;;;;;5097858;28;20375;-82
2022/08/01 06:09:50;;;;;;;3.97;0.70;;;18.40;49.70;;;;;;5097706;28;20908;-84
2022/08/01 06:12:17;;;;;;;2.50;0.70;;;18.30;50.20;;;;;;5097999;28;20401;-83
2022/08/01 06:14:44;;;;;;;1.63;0.80;;;18.30;49.70;;;;;;5098040;28;20927;-83
2022/08/01 06:17:12;;;;;;;1.75;0.60;;;18.20;49.60;;;;;;5099328;28;20911;-85
2022/08/01 06:19:40;;;;;;;1.00;0.40;;;18.10;50.50;;;;;;5099236;28;20381;-80
2022/08/01 06:22:07;;;;;;;3.80;0.95;;;18.00;50.30;;;;;;5100289;28;20376;-77
2022/08/01 06:24:34;;;;;;;2.30;0.80;;;18.00;50.30;;;;;;5097413;28;20368;-84
2022/08/01 06:27:02;;;;;;;2.28;1.00;;;18.00;50.80;;;;;;5096607;28;20376;-83
2022/08/01 06:29:32;;;;;;;1.90;0.60;;;18.00;50.50;;;;;;5096193;28;20476;-85
2022/08/01 06:31:59;;;;;;;2.05;0.52;;;18.00;51.00;;;;;;5097494;28;20375;-83
2022/08/01 06:34:26;;;;;;;1.90;0.63;;;17.90;51.20;;;;;;5096909;28;20797;-89
2022/08/01 06:36:54;;;;;;;2.07;0.70;;;17.80;52.60;;;;;;5096477;28;20386;-83
2022/08/01 06:39:21;;;;;;;2.13;0.63;;;17.70;52.20;;;;;;5097764;28;20459;-89
2022/08/01 06:41:48;;;;;;;1.40;0.60;;;17.60;52.90;;;;;;5038870;28;20945;-89
2022/08/01 06:44:15;;;;;;;2.47;0.50;;;17.50;52.90;;;;;;5055137;28;20384;-86
2022/08/01 06:46:43;;;;;;;1.10;0.57;;;17.60;53.00;;;;;;5039173;28;20425;-88
2022/08/01 06:49:10;;;;;;;1.00;0.60;;;17.30;53.80;;;;;;5053387;28;20776;-83
2022/08/01 06:51:37;;;;;;;1.65;0.70;;;17.20;54.50;;;;;;5057950;28;20396;-86
2022/08/01 06:54:04;;;;;;;1.40;0.60;;;17.00;54.40;;;;;;5057329;28;20405;-85
2022/08/01 06:56:31;;;;;;;1.17;0.60;;;16.90;55.20;;;;;;5049129;28;20422;-84
2022/08/01 06:59:00;;;;;;;1.27;0.80;;;16.80;55.50;;;;;;5056835;28;20372;-85
2022/08/01 07:01:30;;;;;;;1.60;0.75;;;16.80;55.50;;;;;;5055027;28;20433;-83
2022/08/01 07:03:57;;;;;;;2.05;0.68;;;16.60;56.00;;;;;;5057223;28;20414;-87
2022/08/01 07:06:26;;;;;;;1.63;0.80;;;16.60;56.00;;;;;;5056863;28;20380;-88
2022/08/01 07:08:53;;;;;;;1.73;0.87;;;16.50;55.80;;;;;;5057585;28;20443;-85
2022/08/01 07:11:22;;;;;;;2.85;1.88;;;16.50;56.00;;;;;;5055248;28;20379;-85
2022/08/01 07:13:51;;;;;;;2.92;1.83;;;16.40;57.20;;;;;;5056936;28;20864;-86
2022/08/01 07:16:22;;;;;;;2.30;1.20;;;16.20;56.80;;;;;;5056738;28;20396;-87
2022/08/01 07:18:52;;;;;;;1.80;1.00;;;16.10;57.20;;;;;;5041071;28;20372;-86
2022/08/01 07:21:19;;;;;;;2.35;1.42;;;16.00;56.40;;;;;;5100014;28;20387;-85
2022/08/01 07:23:46;;;;;;;1.73;1.17;;;16.00;55.90;;;;;;5095977;28;20367;-85
2022/08/01 07:26:13;;;;;;;1.13;1.00;;;15.90;56.80;;;;;;5093464;28;20806;-84
2022/08/01 07:28:41;;;;;;;1.60;1.00;;;15.80;57.10;;;;;;5092900;28;20454;-81
2022/08/01 07:31:08;;;;;;;3.05;1.20;;;15.60;57.50;;;;;;5092560;28;20783;-87
2022/08/01 07:33:35;;;;;;;4.73;1.67;;;15.50;59.00;;;;;;5093406;28;20418;-86
2022/08/01 07:36:03;;;;;;;2.30;1.33;;;15.40;59.40;;;;;;5092480;28;20379;-91
2022/08/01 07:38:30;;;;;;;1.52;0.90;;;15.30;60.30;;;;;;5092877;28;20422;-88
2022/08/01 07:40:57;;;;;;;2.40;1.45;;;15.10;60.70;;;;;;5093667;28;20377;-88
2022/08/01 07:43:24;;;;;;;2.40;1.35;;;15.10;60.70;;;;;;5093019;28;20460;-86
2022/08/01 07:45:52;;;;;;;1.83;0.80;;;15.00;60.90;;;;;;5093191;28;20427;-88
2022/08/01 07:48:20;;;;;;;2.60;0.90;;;15.00;60.90;;;;;;5094055;28;20868;-88
2022/08/01 07:50:47;;;;;;;4.03;1.63;;;15.00;60.40;;;;;;5093474;28;20721;-88
2022/08/01 07:53:14;;;;;;;1.80;1.00;;;14.90;60.90;;;;;;5092842;28;20777;-88
2022/08/01 07:55:41;;;;;;;2.30;0.90;;;14.90;61.10;;;;;;5093434;28;20467;-87
2022/08/01 07:58:09;;;;;;;1.30;0.85;;;14.90;60.70;;;;;;5092963;28;20438;-85
2022/08/01 08:00:36;;;;;;;2.92;2.05;;;14.90;60.60;;;;;;5092604;28;20364;-84
2022/08/01 08:03:03;;;;;;;2.20;1.10;;;14.80;60.90;;;;;;5091122;28;20951;-86
2022/08/01 08:05:31;;;;;;;1.30;0.93;;;14.80;60.90;;;;;;5100987;28;20461;-89
2022/08/01 08:07:58;;;;;;;1.40;1.00;;;14.70;61.10;;;;;;5093256;28;20372;-84
2022/08/01 08:10:25;;;;;;;1.55;1.30;;;14.80;61.20;;;;;;5092490;28;20369;-85
2022/08/01 08:12:52;;;;;;;1.98;1.00;;;14.70;61.10;;;;;;5092654;28;20369;-86
2022/08/01 08:15:22;;;;;;;1.33;1.00;;;14.70;61.60;;;;;;5092470;28;20950;-85
2022/08/01 08:17:50;;;;;;;1.77;1.00;;;14.60;61.50;;;;;;5092504;28;20392;-86
2022/08/01 08:20:17;;;;;;;2.28;1.05;;;14.60;61.80;;;;;;5092752;28;20376;-87
2022/08/01 08:22:44;;;;;;;2.80;2.00;;;14.50;61.70;;;;;;5093240;28;20375;-88
2022/08/01 08:25:11;;;;;;;2.50;1.15;;;14.40;62.50;;;;;;5093933;28;20400;-84
2022/08/01 08:27:38;;;;;;;3.10;1.23;;;14.30;62.10;;;;;;5092770;28;20369;-85
2022/08/01 08:30:07;;;;;;;2.20;1.10;;;14.20;62.60;;;;;;5092636;28;20375;-87
2022/08/01 08:32:35;;;;;;;1.88;1.10;;;14.20;62.90;;;;;;5091174;28;20365;-88
2022/08/01 08:35:03;;;;;;;1.42;1.00;;;14.10;63.00;;;;;;5092436;28;20404;-82
2022/08/01 08:37:31;;;;;;;1.35;1.10;;;14.00;63.40;;;;;;5092592;28;20368;-81
2022/08/01 08:39:58;;;;;;;1.48;1.10;;;14.00;64.00;;;;;;5092435;28;20945;-88
2022/08/01 08:42:25;;;;;;;1.30;1.20;;;14.00;63.40;;;;;;5092146;28;20522;-85
2022/08/01 08:44:55;;;;;;;4.72;3.15;;;14.00;63.50;;;;;;5092525;28;20381;-83
2022/08/01 08:47:24;;;;;;;2.53;2.05;;;14.00;63.80;;;;;;5095653;28;20917;-88
2022/08/01 08:49:53;;;;;;;2.13;1.30;;;13.90;63.50;;;;;;5096469;28;20471;-88
2022/08/01 08:52:22;;;;;;;2.10;1.90;;;13.90;64.00;;;;;;5096103;28;20433;-86
2022/08/01 08:54:51;;;;;;;3.17;1.77;;;13.80;65.00;;;;;;5096006;28;20803;-85
2022/08/01 08:57:23;;;;;;;4.50;1.50;;;13.80;64.60;;;;;;5096723;28;20459;-88
2022/08/01 08:59:52;;;;;;;3.03;2.00;;;13.60;64.90;;;;;;5097010;28;20765;-85
2022/08/01 09:02:19;;;;;;;3.05;1.90;;;13.50;65.90;;;;;;5096798;28;20393;-89
2022/08/01 09:04:49;;;;;;;3.35;1.70;;;13.40;65.60;;;;;;5096556;28;20418;-83
2022/08/01 09:07:16;;;;;;;2.58;1.65;;;13.10;66.00;;;;;;5096742;28;20399;-88
2022/08/01 09:09:47;;;;;;;4.47;2.20;;;13.00;67.40;;;;;;5096685;28;20396;-88
2022/08/01 09:12:18;;;;;;;4.13;3.07;;;12.90;68.50;;;;;;5097218;28;20447;-86
2022/08/01 09:14:47;;;;;;;10.23;7.85;;;12.80;68.60;;;;;;5099072;28;20449;-87
2022/08/01 09:17:16;;;;;;;6.03;4.80;;;12.80;68.90;;;;;;5099718;28;20369;-90
2022/08/01 09:19:51;;;;;;;5.55;3.90;;;12.80;69.40;;;;;;5099171;28;20841;-84
2022/08/01 09:22:22;;;;;;;4.43;2.70;;;12.70;69.50;;;;;;5100141;28;20371;-88
2022/08/01 09:24:58;;;;;;;4.70;1.80;;;12.70;69.70;;;;;;5101300;28;20368;-88
2022/08/01 09:27:25;;;;;;;4.10;1.75;;;12.70;69.80;;;;;;5107696;28;20422;-89
2022/08/01 09:29:53;;;;;;;4.50;2.20;;;12.70;70.50;;;;;;5110138;28;20380;-87
2022/08/01 09:32:21;;;;;;;3.60;2.10;;;12.60;71.50;;;;;;5110179;28;20381;-87
2022/08/01 09:34:48;;;;;;;4.63;2.40;;;12.60;70.90;;;;;;5115718;28;20396;-84
2022/08/01 09:37:17;;;;;;;3.72;2.40;;;12.50;71.20;;;;;;5116661;28;20365;-82
2022/08/01 09:39:46;;;;;;;4.53;2.28;;;12.40;71.40;;;;;;5115540;28;20781;-83
2022/08/01 09:42:27;;;;;;;19.83;15.60;;;12.40;72.40;;;;;;5115595;28;20384;-83
2022/08/01 09:44:54;;;;;;;14.30;9.45;;;12.30;72.80;;;;;;5115644;28;20376;-84
2022/08/01 09:47:41;;;;;;;10.68;6.55;;;12.30;72.70;;;;;;5110042;28;20403;-83
2022/08/01 09:50:08;;;;;;;9.80;4.43;;;12.20;73.40;;;;;;5097140;28;20376;-86
2022/08/01 09:52:38;;;;;;;4.15;1.88;;;12.30;73.60;;;;;;5095990;28;20356;-88
2022/08/01 09:55:07;;;;;;;4.00;1.90;;;12.30;73.40;;;;;;5098200;28;20503;-86
2022/08/01 09:57:34;;;;;;;3.80;1.83;;;12.30;73.70;;;;;;5109379;28;20368;-83
2022/08/01 10:00:03;;;;;;;2.03;1.83;;;12.40;73.00;;;;;;5101243;28;20377;-84
2022/08/01 10:02:32;;;;;;;3.60;2.15;;;12.40;73.20;;;;;;5099841;28;20376;-83
2022/08/01 10:05:00;;;;;;;7.13;6.43;;;12.30;73.60;;;;;;5097598;28;20767;-87
2022/08/01 10:07:28;;;;;;;6.87;5.63;;;12.30;73.20;;;;;;5097334;28;20740;-84
2022/08/01 10:09:55;;;;;;;9.13;5.13;;;12.10;73.80;;;;;;5096759;28;20716;-86
2022/08/01 10:12:26;;;;;;;5.13;3.70;;;12.00;74.90;;;;;;5096385;28;20379;-89
2022/08/01 10:14:55;;;;;;;4.65;2.13;;;11.90;75.60;;;;;;5096461;28;20446;-86
2022/08/01 10:17:25;;;;;;;6.93;2.30;;;11.80;75.90;;;;;;5095332;28;20373;-90
2022/08/01 10:19:57;;;;;;;4.95;2.20;;;11.70;76.80;;;;;;5095211;28;20720;-88
2022/08/01 10:22:26;;;;;;;17.67;13.40;;;11.70;77.20;;;;;;5095298;28;20361;-88
2022/08/01 10:24:59;;;;;;;28.42;24.13;;;11.60;77.70;;;;;;5095093;28;20415;-88
2022/08/01 10:27:30;;;;;;;7.72;5.05;;;11.50;78.40;;;;;;5098999;28;20372;-88
2022/08/01 10:30:09;;;;;;;8.00;3.95;;;11.30;79.50;;;;;;5097212;28;20486;-86
2022/08/01 10:32:37;;;;;;;16.55;14.50;;;11.30;79.60;;;;;;5095049;28;20368;-89
2022/08/01 10:35:08;;;;;;;10.05;7.10;;;11.20;80.60;;;;;;5094983;28;20396;-87
2022/08/01 10:37:39;;;;;;;9.00;8.10;;;11.10;81.10;;;;;;5094796;28;20392;-90
2022/08/01 10:40:07;;;;;;;8.48;6.82;;;11.10;82.10;;;;;;5094207;28;20376;-88
2022/08/01 10:42:35;;;;;;;5.13;3.72;;;11.00;82.60;;;;;;5094203;28;20385;-87
2022/08/01 10:45:03;;;;;;;12.88;7.07;;;11.00;83.00;;;;;;5094172;28;20879;-87
2022/08/01 10:47:59;;;;;;;5.75;3.30;;;11.10;82.70;;;;;;5094021;28;20778;-86
2022/08/01 10:50:53;;;;;;;3.92;2.50;;;11.30;83.40;;;;;;5095364;28;20352;-90
2022/08/01 10:53:22;;;;;;;4.40;2.65;;;10.90;84.30;;;;;;5089425;28;20392;-84
2022/08/01 10:55:52;;;;;;;3.58;2.20;;;10.70;86.80;;;;;;5097547;28;20404;-90
2022/08/01 10:58:37;;;;;;;3.17;2.40;;;10.60;88.00;;;;;;5094735;28;20376;-87
2022/08/01 11:01:26;;;;;;;3.90;2.80;;;10.50;89.80;;;;;;5095660;28;20367;-88
2022/08/01 11:04:01;;;;;;;5.38;3.42;;;10.50;90.60;;;;;;5093420;28;20380;-89
2022/08/01 11:06:37;;;;;;;5.10;3.30;;;10.50;90.70;;;;;;5095275;28;20402;-88
2022/08/01 11:09:24;;;;;;;4.50;2.90;;;10.50;91.10;;;;;;5094225;28;20767;-88
2022/08/01 11:12:06;;;;;;;3.30;2.50;;;10.50;91.10;;;;;;5093849;28;20376;-84
2022/08/01 11:14:34;;;;;;;4.25;2.50;;;10.50;91.20;;;;;;5094067;28;20411;-86
2022/08/01 11:17:32;;;;;;;4.37;2.50;;;10.30;92.10;;;;;;5095346;28;20433;-88
2022/08/01 11:20:21;;;;;;;2.72;2.30;;;10.10;92.90;;;;;;5094061;28;20415;-88
2022/08/01 11:23:05;;;;;;;4.15;2.50;;;9.90;93.60;;;;;;5097101;28;20490;-87
2022/08/01 11:25:40;;;;;;;3.15;2.60;;;9.80;94.70;;;;;;5097052;28;20415;-86
2022/08/01 11:28:16;;;;;;;5.05;3.05;;;11.40;96.60;;;;;;5094821;28;20444;-87
2022/08/01 11:30:44;;;;;;;4.53;2.83;;;9.50;97.30;;;;;;5094686;28;20867;-88
2022/08/01 11:33:12;;;;;;;5.27;4.40;;;9.30;98.10;;;;;;5094058;28;20369;-87
2022/08/01 11:36:11;;;;;;;5.93;4.00;;;9.20;98.80;;;;;;5093787;28;20396;-84
2022/08/01 11:38:47;;;;;;;6.63;4.47;;;9.10;99.70;;;;;;5094221;28;20795;-87
2022/08/01 11:41:26;;;;;;;5.90;4.20;;;9.00;99.90;;;;;;5090783;28;20455;-87
2022/08/01 11:44:04;;;;;;;5.88;4.22;;;8.90;99.90;;;;;;5092601;28;20403;-86
2022/08/01 11:46:51;;;;;;;6.10;4.25;;;8.80;99.90;;;;;;5094198;28;20372;-88
2022/08/01 11:49:40;;;;;;;6.85;4.10;;;8.70;99.90;;;;;;5076676;28;20870;-89
2022/08/01 11:52:12;;;;;;;6.87;3.80;;;8.70;99.90;;;;;;5094109;28;20416;-89
2022/08/01 11:54:47;;;;;;;6.80;4.10;;;8.60;99.90;;;;;;5093101;28;20473;-89
2022/08/01 11:57:25;;;;;;;5.13;3.45;;;8.60;99.90;;;;;;5091814;28;20376;-89
2022/08/01 11:59:58;;;;;;;5.78;3.40;;;8.50;99.90;;;;;;5092630;28;20372;-85
2022/08/01 12:02:29;;;;;;;7.07;3.30;;;8.40;99.90;;;;;;5092565;28;20404;-90
2022/08/01 12:04:57;;;;;;;6.05;3.58;;;8.40;99.90;;;;;;5092459;28;20487;-86
2022/08/01 12:07:27;;;;;;;4.25;3.30;;;8.40;99.90;;;;;;5092493;28;20365;-89
2022/08/01 12:10:04;;;;;;;5.20;3.20;;;8.30;99.90;;;;;;5092440;28;20375;-89
2022/08/01 12:12:32;;;;;;;6.40;3.50;;;8.30;99.90;;;;;;5092926;28;20391;-89
2022/08/01 12:15:03;;;;;;;5.07;3.20;;;8.20;99.90;;;;;;5092266;28;20419;-90
2022/08/01 12:17:34;;;;;;;3.83;3.10;;;8.20;99.90;;;;;;5090985;28;20459;-87
2022/08/01 12:20:04;;;;;;;4.30;2.75;;;8.10;99.90;;;;;;5091071;28;20460;-88
2022/08/01 12:22:31;;;;;;;3.50;2.70;;;8.10;99.90;;;;;;5095570;28;20376;-89
2022/08/01 12:25:07;;;;;;;4.80;3.03;;;8.00;99.90;;;;;;5096476;28;20391;-88
2022/08/01 12:27:34;;;;;;;3.95;2.90;;;8.00;99.90;;;;;;5095220;28;20372;-88
2022/08/01 12:30:04;;;;;;;2.92;2.60;;;8.00;99.90;;;;;;5096414;28;20384;-87
2022/08/01 12:32:36;;;;;;;4.10;2.80;;;8.00;99.90;;;;;;5096942;28;20365;-87
2022/08/01 12:35:08;;;;;;;3.35;2.55;;;8.00;99.90;;;;;;5096658;28;20476;-84
2022/08/01 12:37:40;;;;;;;4.32;2.88;;;8.00;99.90;;;;;;5097061;28;20864;-88
2022/08/01 12:40:16;;;;;;;4.57;2.40;;;7.90;99.90;;;;;;5096590;28;20380;-88
2022/08/01 12:42:45;;;;;;;3.58;2.70;;;7.90;99.90;;;;;;5096006;28;20473;-86
2022/08/01 12:45:17;;;;;;;4.70;3.72;;;7.90;99.90;;;;;;5096169;28;20389;-88
2022/08/01 12:47:45;;;;;;;9.77;7.78;;;7.80;99.90;;;;;;5095948;28;20372;-86
2022/08/01 12:50:16;;;;;;;4.65;3.60;;;7.70;99.90;;;;;;5095847;28;20383;-87
2022/08/01 12:52:44;;;;;;;5.28;4.13;;;7.60;99.90;;;;;;5095761;28;20369;-85
2022/08/01 12:55:13;;;;;;;7.82;6.55;;;7.50;99.90;;;;;;5095576;28;20411;-88
2022/08/01 12:57:44;;;;;;;7.82;4.85;;;7.50;99.90;;;;;;5096051;28;20364;-88
2022/08/01 13:00:14;;;;;;;7.97;6.32;;;7.30;99.90;;;;;;5095856;28;20398;-87
2022/08/01 13:02:42;;;;;;;7.50;5.85;;;7.30;99.90;;;;;;5095947;28;20448;-89
2022/08/01 13:05:10;;;;;;;8.85;6.25;;;7.10;99.90;;;;;;5095935;28;20422;-88
2022/08/01 13:07:50;;;;;;;7.82;6.05;;;7.20;99.90;;;;;;5095794;28;20394;-88